Главная страница
METAR-TAF:

METAR-TAF

Аэропорты :

Линчёпинг, Швеция

широта: 58-24N, долгота: 015-41E, высота над уровнем моря: 52 м

Текущие метеонаблюдения

Эта сводка был подготовлена 35 минут назад, в 07:50 UTC
Ветер 10 Узел от западный, изменяющийся между юго-западный и северо-западный
Температура 4°C
Влажность 75%
Давление 999 hPa
Видимость 10 км и более
Нет облачности ниже 1500 м, и нет кучево-дождевой облачности

METAR: ESSL 210750Z 26010KT 230V310 CAVOK 04/00 Q0999 R29/29//95

Время: 09:25 (08:25 UTC)

Прогноз

Эта сводка был подготовлена 2 часа и 55 минут назад, в 05:30 UTC
Прогноз действительный с 21-го 06 UTC до 21-го 15 UTC
Ветер 12 Узел от западный-юго-западный
Видимость 10 км и более
Нет облачности ниже 1500 м, и нет кучево-дождевой облачности
изменения
С 21-го 08 UTC до 21-го 10 UTC
Ветер 15 Узел от западный с порывами до 28 Узел

TAF: ESSL 210530Z 2106/2115 25012KT CAVOK BECMG 2108/2110 26015G28KT

Метеонаблюдения и прогнозы для более 4000 аэропортов (сводки METAR и TAF).

Имеющиеся станции представлены на карте желтыми и красными точками.

Чтобы увидеть название станции, наведите на нее мышь.

Затем щелкните, чтобы увидеть метеонаблюдения и метеопрогнозы.

Управление картой: чтобы увеличить масштаб, щелкните зеленые кнопки с черным крестиком; чтобы уменьшить масштаб, щелкните зеленую кнопку с тире; для просмотра соседних карт щелкайте зеленые стрелки.


METAR-TAF: